Time;durP1;ratioP1;P1;durP2;ratioP2;P2;SDS_P1;SDS_P2;PMS_P1;PMS_P2;Temp;Humidity;BMP_temperature;BMP_pressure;BME280_temperature;BME280_humidity;BME280_pressure;Samples;Min_cycle;Max_cycle;Signal;HPM_P1;HPM_P2
2022/06/04 00:00:19;;;;;;;6.22;2.92;;;;;;;16.17;96.82;95707.94;5093889;28;20566;-61
2022/06/04 00:02:46;;;;;;;8.52;3.40;;;;;;;16.17;96.13;95701.78;5102509;28;20035;-60
2022/06/04 00:05:14;;;;;;;9.45;3.45;;;;;;;16.17;97.06;95712.41;5093484;28;20024;-61
2022/06/04 00:07:40;;;;;;;11.05;3.08;;;;;;;16.14;96.74;95716.25;5100060;28;20477;-61
2022/06/04 00:15:45;;;;;;;9.55;3.85;;;;;;;16.16;96.86;95727.53;5094635;28;20569;-61
2022/06/04 00:18:11;;;;;;;6.68;3.10;;;;;;;16.17;96.73;95736.31;5094096;28;20035;-61
2022/06/04 00:20:37;;;;;;;9.27;3.13;;;;;;;16.17;96.65;95734.50;5101910;28;20103;-61
2022/06/04 00:23:05;;;;;;;9.05;2.83;;;;;;;16.15;97.39;95738.31;5095484;28;20031;-61
2022/06/04 00:25:32;;;;;;;9.38;3.20;;;;;;;16.13;96.76;95732.38;5098945;28;20027;-61
2022/06/04 00:28:02;;;;;;;6.25;3.28;;;;;;;16.14;96.15;95748.13;5095269;28;20067;-61
2022/06/04 00:30:27;;;;;;;5.97;3.13;;;;;;;16.16;96.47;95748.78;5096444;28;20020;-60
2022/06/04 00:32:53;;;;;;;9.38;3.30;;;;;;;16.13;96.83;95754.41;5098523;28;20026;-61
2022/06/04 00:35:18;;;;;;;12.30;3.38;;;;;;;16.10;96.33;95751.31;5100505;28;20026;-61
2022/06/04 00:37:44;;;;;;;7.93;3.40;;;;;;;16.06;96.29;95750.00;5094399;28;20103;-61
2022/06/04 00:40:14;;;;;;;5.45;3.20;;;;;;;16.04;95.84;95748.34;5099440;28;20112;-61
2022/06/04 00:42:39;;;;;;;9.15;2.95;;;;;;;16.01;96.06;95761.97;5096912;28;20039;-61
2022/06/04 00:45:23;;;;;;;8.02;3.05;;;;;;;16.01;95.96;95761.97;5105677;28;20024;-61
2022/06/04 00:47:49;;;;;;;11.65;3.17;;;;;;;16.04;95.82;95764.28;5091366;28;20463;-61
2022/06/04 00:50:18;;;;;;;15.20;3.30;;;;;;;16.06;95.38;95764.09;5100577;28;20047;-60
2022/06/04 00:52:49;;;;;;;12.68;2.92;;;;;;;16.07;96.72;95759.63;5099302;28;20103;-61
2022/06/04 00:55:17;;;;;;;10.00;3.20;;;;;;;16.05;96.90;95765.09;5101947;28;20406;-61
2022/06/04 00:58:13;;;;;;;4.88;2.63;;;;;;;16.01;97.04;95777.88;5105722;28;20031;-61
2022/06/04 01:00:44;;;;;;;6.53;2.72;;;;;;;15.99;96.31;95785.19;5101282;28;20031;-61
2022/06/04 01:03:37;;;;;;;10.05;3.22;;;;;;;15.98;95.55;95785.38;5104931;28;20035;-61
2022/06/04 01:06:08;;;;;;;8.20;2.85;;;;;;;16.00;94.55;95786.03;5101711;28;20031;-61
2022/06/04 01:08:46;;;;;;;11.15;3.25;;;;;;;15.98;95.13;95799.47;5099164;28;20027;-61
2022/06/04 01:11:17;;;;;;;11.23;4.95;;;;;;;15.92;96.24;95802.03;5106051;28;20031;-61
2022/06/04 01:14:26;;;;;;;7.72;3.00;;;;;;;15.90;96.43;95784.41;5103976;28;20032;-61
2022/06/04 01:17:01;;;;;;;7.95;2.88;;;;;;;15.89;95.76;95790.72;5104702;28;20011;-61
2022/06/04 01:19:32;;;;;;;9.90;3.00;;;;;;;15.87;94.96;95787.38;5101648;28;20016;-61
2022/06/04 01:22:47;;;;;;;9.95;3.10;;;;;;;15.91;95.44;95785.25;5101489;28;20273;-61
2022/06/04 01:25:23;;;;;;;11.38;2.70;;;;;;;15.89;96.01;95782.75;5102657;28;20038;-61
2022/06/04 01:31:15;;;;;;;11.02;3.38;;;;;;;15.73;96.45;95783.63;5096159;28;20414;-61
2022/06/04 01:33:52;;;;;;;13.25;3.15;;;;;;;15.66;96.62;95787.97;5099654;28;20035;-60
2022/06/04 01:43:03;;;;;;;8.75;3.00;;;;;;;15.57;97.02;95789.84;5095968;28;20405;-61
2022/06/04 01:45:31;;;;;;;7.55;3.30;;;;;;;15.60;97.17;95786.03;5096586;28;20020;-61
2022/06/04 01:48:01;;;;;;;8.70;2.85;;;;;;;15.63;96.88;95784.84;5096716;28;20099;-61
2022/06/04 01:50:33;;;;;;;8.15;3.55;;;;;;;15.63;96.80;95784.84;5096744;28;20085;-61
2022/06/04 01:53:04;;;;;;;8.45;3.03;;;;;;;15.61;97.70;95788.47;5101672;28;20017;-61
2022/06/04 01:55:49;;;;;;;9.63;3.38;;;;;;;15.57;97.80;95789.00;5096930;28;20044;-61
2022/06/04 01:58:20;;;;;;;;;;;;;;;15.55;98.13;95783.03;5099975;28;20503;-61
2022/06/04 02:01:04;;;;;;;7.78;3.03;;;;;;;15.61;97.74;95785.03;5078215;28;20354;-61
2022/06/04 02:03:54;;;;;;;8.13;2.80;;;;;;;15.54;99.17;95792.00;5097662;28;20024;-61
2022/06/04 02:06:44;;;;;;;9.75;3.08;;;;;;;15.66;97.51;95797.75;5097980;28;20016;-61
2022/06/04 02:09:15;;;;;;;8.38;3.25;;;;;;;15.64;97.31;95797.09;5106547;28;20020;-61
2022/06/04 02:11:49;;;;;;;14.27;3.33;;;;;;;15.59;97.56;95784.38;5109651;28;20023;-61
2022/06/04 02:14:15;;;;;;;9.98;3.13;;;;;;;15.56;98.26;95787.34;5103219;28;20102;-61
2022/06/04 02:16:45;;;;;;;6.82;3.63;;;;;;;15.53;99.02;95795.63;5100499;28;20574;-61
2022/06/04 02:19:10;;;;;;;6.53;3.20;;;;;;;15.45;98.78;95789.38;5100447;28;20381;-60
2022/06/04 02:21:36;;;;;;;12.20;3.80;;;;;;;15.49;98.57;95799.63;5104500;28;20047;-61
2022/06/04 02:24:03;;;;;;;14.50;2.85;;;;;;;15.46;98.90;95791.03;5100575;28;20030;-61
2022/06/04 02:26:29;;;;;;;8.50;3.08;;;;;;;15.46;98.65;95798.97;5098263;28;20024;-61
2022/06/04 02:28:57;;;;;;;7.57;3.55;;;;;;;15.49;98.62;95794.34;5100603;28;20030;-61
2022/06/04 02:31:48;;;;;;;8.13;3.55;;;;;;;15.49;99.20;95799.63;5108562;28;20012;-61
2022/06/04 02:34:33;;;;;;;8.38;3.30;;;;;;;15.45;99.13;95784.06;5095961;28;20059;-61
2022/06/04 02:37:09;;;;;;;6.73;3.10;;;;;;;15.43;100.00;95791.38;5102085;28;20512;-61
2022/06/04 02:39:44;;;;;;;8.35;3.30;;;;;;;15.38;100.00;95787.56;5102373;28;20020;-60
2022/06/04 02:42:29;;;;;;;7.05;3.40;;;;;;;15.37;100.00;95797.34;5110585;28;20020;-60
2022/06/04 02:45:00;;;;;;;6.32;3.00;;;;;;;15.41;99.64;95793.38;5111902;28;20070;-61
2022/06/04 02:47:47;;;;;;;8.20;2.97;;;;;;;15.36;100.00;95793.03;5105227;28;20035;-62
2022/06/04 02:50:17;;;;;;;10.68;3.60;;;;;;;15.35;100.00;95801.16;5098033;28;20026;-61
2022/06/04 02:52:45;;;;;;;7.10;3.47;;;;;;;15.33;100.00;95804.81;5112288;28;20430;-62
2022/06/04 02:55:18;;;;;;;9.50;3.08;;;;;;;15.33;100.00;95801.31;5101659;28;20040;-62
2022/06/04 02:57:47;;;;;;;7.28;3.17;;;;;;;15.31;100.00;95795.38;5112044;28;20031;-62
2022/06/04 03:00:17;;;;;;;7.28;2.90;;;;;;;15.27;100.00;95794.03;5111632;28;20531;-62
2022/06/04 03:02:44;;;;;;;11.27;3.20;;;;;;;15.25;100.00;95798.69;5111686;28;20019;-62
2022/06/04 03:05:18;;;;;;;8.63;3.40;;;;;;;15.24;100.00;95805.00;5111230;28;20057;-62
2022/06/04 03:07:48;;;;;;;5.78;3.28;;;;;;;15.22;100.00;95796.38;5111599;28;20512;-62
2022/06/04 03:10:19;;;;;;;8.82;3.20;;;;;;;15.22;100.00;95788.44;5111385;28;20028;-62
2022/06/04 03:12:45;;;;;;;7.05;3.40;;;;;;;15.20;100.00;95790.44;5111810;28;20027;-62
2022/06/04 03:15:11;;;;;;;6.90;3.20;;;;;;;15.21;100.00;95781.47;5110707;28;20032;-62
2022/06/04 03:17:38;;;;;;;13.05;3.70;;;;;;;15.22;100.00;95785.78;5109361;28;20035;-62
2022/06/04 03:20:04;;;;;;;11.05;3.60;;;;;;;15.21;100.00;95786.78;5100202;28;20375;-62
2022/06/04 03:22:29;;;;;;;7.70;3.65;;;;;;;15.21;100.00;95794.72;5090468;28;20024;-62
2022/06/04 03:24:55;;;;;;;9.88;3.40;;;;;;;15.16;100.00;95798.72;5090668;28;20043;-62
2022/06/04 03:27:20;;;;;;;11.30;3.92;;;;;;;15.13;100.00;95796.38;5090976;28;20038;-62
2022/06/04 03:29:46;;;;;;;7.28;3.13;;;;;;;15.14;100.00;95798.06;5090791;28;20060;-62
2022/06/04 03:32:11;;;;;;;11.13;3.47;;;;;;;15.14;100.00;95806.03;5090423;28;20031;-62
2022/06/04 03:34:36;;;;;;;8.73;4.15;;;;;;;15.18;100.00;95811.78;5090704;28;20020;-62
2022/06/04 03:37:02;;;;;;;6.95;3.30;;;;;;;15.23;100.00;95813.94;5094521;28;20447;-62
2022/06/04 03:39:29;;;;;;;7.05;3.42;;;;;;;15.27;100.00;95804.66;5095590;28;20031;-62
2022/06/04 03:41:54;;;;;;;7.63;3.80;;;;;;;15.29;100.00;95810.63;5090478;28;20016;-62
2022/06/04 03:44:20;;;;;;;14.18;4.20;;;;;;;15.33;100.00;95814.59;5090438;28;20020;-62
2022/06/04 03:46:45;;;;;;;12.63;4.03;;;;;;;15.33;100.00;95809.28;5074022;28;20056;-62
2022/06/04 03:49:11;;;;;;;9.73;5.28;;;;;;;15.30;100.00;95812.28;5090305;28;20512;-62
2022/06/04 03:51:37;;;;;;;9.18;4.90;;;;;;;15.31;100.00;95819.22;5090386;28;20031;-62
2022/06/04 03:54:03;;;;;;;10.25;5.30;;;;;;;15.33;100.00;95817.22;5090157;28;20041;-62
2022/06/04 03:56:29;;;;;;;16.67;6.13;;;;;;;15.31;100.00;95813.94;5089960;28;20131;-62
2022/06/04 03:58:54;;;;;;;7.95;5.70;;;;;;;15.27;100.00;95824.06;5090985;28;20107;-62
2022/06/04 04:01:24;;;;;;;14.38;5.32;;;;;;;15.22;100.00;95817.59;5094331;28;20031;-62
2022/06/04 04:03:50;;;;;;;16.60;5.78;;;;;;;15.11;100.00;95811.63;5090313;28;20032;-62
2022/06/04 04:06:21;;;;;;;11.68;4.38;;;;;;;15.05;100.00;95804.34;5090044;28;20027;-62
2022/06/04 04:08:46;;;;;;;11.38;4.93;;;;;;;15.04;100.00;95806.19;5089910;28;20109;-62
2022/06/04 04:11:14;;;;;;;10.73;4.53;;;;;;;15.09;100.00;95808.31;5089990;28;20044;-62
2022/06/04 04:13:41;;;;;;;12.05;6.38;;;;;;;15.12;100.00;95815.94;5090051;28;20390;-62
2022/06/04 04:16:07;;;;;;;9.48;4.63;;;;;;;15.13;100.00;95809.63;5097508;28;20023;-62
2022/06/04 04:18:34;;;;;;;8.55;4.75;;;;;;;15.18;100.00;95807.34;5105024;28;20027;-62
2022/06/04 04:21:06;;;;;;;8.60;4.82;;;;;;;15.20;100.00;95807.16;5089672;28;20017;-61
2022/06/04 04:23:33;;;;;;;17.30;4.70;;;;;;;15.18;100.00;95815.28;5089794;28;20030;-62
2022/06/04 04:25:58;;;;;;;11.00;4.50;;;;;;;15.23;100.00;95816.59;5089628;28;20073;-62
2022/06/04 04:28:23;;;;;;;15.40;5.28;;;;;;;15.26;100.00;95825.06;5089508;28;20032;-62
2022/06/04 04:30:49;;;;;;;11.60;5.10;;;;;;;15.30;100.00;95822.88;5089666;28;20078;-62
2022/06/04 04:33:14;;;;;;;13.93;4.55;;;;;;;15.36;100.00;95821.38;5089737;28;20022;-62
2022/06/04 04:35:41;;;;;;;10.40;4.30;;;;;;;15.41;100.00;95819.03;5089475;28;20054;-62
2022/06/04 04:38:07;;;;;;;8.90;4.65;;;;;;;15.46;100.00;95822.00;5089874;28;20499;-62
2022/06/04 04:40:34;;;;;;;6.97;4.25;;;;;;;15.48;100.00;95825.34;5090090;28;20020;-61
2022/06/04 04:43:00;;;;;;;9.75;4.68;;;;;;;15.57;100.00;95828.78;5089403;28;20043;-61
2022/06/04 04:45:26;;;;;;;12.55;4.90;;;;;;;15.57;100.00;95831.44;5089811;28;20115;-62
2022/06/04 04:47:53;;;;;;;12.43;4.30;;;;;;;15.56;100.00;95841.25;5090183;28;20031;-62
2022/06/04 04:50:26;;;;;;;10.15;4.15;;;;;;;15.62;99.68;95831.78;5095676;28;20035;-61
2022/06/04 04:52:52;;;;;;;10.00;3.15;;;;;;;15.70;98.70;95822.97;5094113;28;20036;-62
2022/06/04 04:55:18;;;;;;;11.05;3.67;;;;;;;15.69;99.25;95823.94;5089476;28;20541;-62
2022/06/04 04:57:44;;;;;;;12.68;3.38;;;;;;;15.70;99.23;95826.44;5089168;28;20028;-62
2022/06/04 05:00:10;;;;;;;6.70;3.47;;;;;;;15.66;100.00;95827.78;5089568;28;20016;-62
2022/06/04 05:02:36;;;;;;;8.73;3.75;;;;;;;15.65;99.91;95828.78;5089373;28;20028;-62
2022/06/04 05:05:02;;;;;;;5.38;3.42;;;;;;;15.70;99.85;95826.44;5089275;28;20039;-62
2022/06/04 05:07:28;;;;;;;4.97;3.10;;;;;;;15.81;98.82;95822.59;5089874;28;20063;-62
2022/06/04 05:09:53;;;;;;;7.03;3.40;;;;;;;15.90;98.25;95826.06;5089366;28;20490;-62
2022/06/04 05:12:18;;;;;;;9.35;2.95;;;;;;;15.98;97.96;95825.22;5089603;28;20031;-62
2022/06/04 05:14:44;;;;;;;7.50;3.58;;;;;;;15.99;98.34;95825.03;5089140;28;20576;-62
2022/06/04 05:17:09;;;;;;;10.77;3.70;;;;;;;16.00;98.32;95818.72;5105707;28;20526;-62
2022/06/04 05:19:35;;;;;;;9.88;3.78;;;;;;;16.07;98.59;95816.19;5109947;28;20027;-62
2022/06/04 05:22:01;;;;;;;7.45;3.35;;;;;;;16.15;97.73;95818.00;5107943;28;20439;-62
2022/06/04 05:24:29;;;;;;;6.30;3.53;;;;;;;16.26;97.58;95820.28;5095331;28;20035;-62
2022/06/04 05:26:55;;;;;;;9.93;3.42;;;;;;;16.41;97.27;95814.19;5089112;28;20418;-63
2022/06/04 05:29:21;;;;;;;10.35;3.63;;;;;;;16.53;96.17;95812.81;5071202;28;20047;-62
2022/06/04 05:31:47;;;;;;;9.65;3.70;;;;;;;16.67;95.33;95805.88;5081715;28;20062;-62
2022/06/04 05:34:15;;;;;;;9.13;3.78;;;;;;;16.75;95.36;95805.81;5089645;28;20049;-62
2022/06/04 05:36:40;;;;;;;7.85;3.67;;;;;;;16.79;94.80;95816.09;5089312;28;20024;-62
2022/06/04 05:39:07;;;;;;;9.85;3.47;;;;;;;16.89;93.57;95806.88;5088971;28;20368;-62
2022/06/04 05:41:34;;;;;;;7.05;3.70;;;;;;;16.96;92.55;95806.97;5092856;28;20517;-62
2022/06/04 05:43:59;;;;;;;16.52;4.85;;;;;;;17.06;92.36;95816.59;5074607;28;20058;-62
2022/06/04 05:46:25;;;;;;;13.35;4.47;;;;;;;17.05;93.45;95813.09;5092651;28;20051;-62
2022/06/04 05:48:51;;;;;;;10.05;4.65;;;;;;;17.15;92.97;95811.03;5092668;28;20024;-62
2022/06/04 05:51:20;;;;;;;14.55;4.72;;;;;;;17.21;93.18;95811.31;5092545;28;20035;-62
2022/06/04 05:53:48;;;;;;;10.18;4.95;;;;;;;17.26;93.06;95809.75;5080272;28;20051;-62
2022/06/04 05:56:20;;;;;;;10.00;6.18;;;;;;;17.28;93.13;95821.03;5092903;28;20119;-62
2022/06/04 05:58:47;;;;;;;11.25;3.45;;;;;;;17.29;93.26;95827.19;5092458;28;20016;-62
2022/06/04 06:01:14;;;;;;;9.40;3.92;;;;;;;17.26;92.35;95827.53;5092254;28;20016;-62
2022/06/04 06:03:40;;;;;;;10.45;3.65;;;;;;;17.15;92.42;95831.47;5074691;28;20035;-62
2022/06/04 06:06:11;;;;;;;7.13;3.47;;;;;;;17.07;92.61;95832.34;5092219;28;20028;-62
2022/06/04 06:08:36;;;;;;;11.68;3.60;;;;;;;17.11;92.26;95840.81;5092432;28;20024;-63
2022/06/04 06:11:05;;;;;;;10.10;4.03;;;;;;;17.16;91.98;95841.94;5096240;28;20027;-63
2022/06/04 06:13:31;;;;;;;6.75;3.25;;;;;;;17.17;92.17;95835.59;5097212;28;20028;-62
2022/06/04 06:15:56;;;;;;;6.95;3.28;;;;;;;17.26;91.02;95830.19;5098046;28;20023;-62
2022/06/04 06:18:21;;;;;;;8.60;3.97;;;;;;;17.29;91.34;95838.66;5103295;28;20024;-63
2022/06/04 06:20:47;;;;;;;5.38;3.85;;;;;;;17.33;92.82;95837.28;5110911;28;20019;-62
2022/06/04 06:23:12;;;;;;;9.27;3.90;;;;;;;17.36;92.48;95838.78;5108420;28;20028;-63
2022/06/04 06:25:38;;;;;;;12.05;4.43;;;;;;;17.64;91.48;95837.31;5108318;28;20076;-62
2022/06/04 06:28:04;;;;;;;10.48;4.35;;;;;;;18.00;90.03;95839.25;5092687;28;20043;-62
2022/06/04 06:30:29;;;;;;;7.38;4.35;;;;;;;18.42;87.57;95834.22;5075111;28;20019;-62
2022/06/04 06:32:58;;;;;;;8.80;3.88;;;;;;;18.78;85.95;95830.72;5095232;28;20545;-61
2022/06/04 06:35:23;;;;;;;8.15;3.53;;;;;;;18.93;84.77;95830.66;5095270;28;20039;-62
2022/06/04 06:37:49;;;;;;;11.38;4.05;;;;;;;19.36;83.59;95835.16;5092319;28;20024;-62
2022/06/04 06:40:15;;;;;;;12.85;3.70;;;;;;;19.98;81.35;95826.53;5094314;28;20028;-61
2022/06/04 06:42:41;;;;;;;8.73;3.83;;;;;;;20.56;77.44;95820.78;5106511;28;20023;-62
2022/06/04 06:45:07;;;;;;;11.35;4.10;;;;;;;20.88;76.21;95823.75;5111830;28;20024;-62
2022/06/04 06:47:33;;;;;;;15.10;4.25;;;;;;;20.99;74.75;95824.19;5109737;28;20491;-62
2022/06/04 06:50:00;;;;;;;9.70;3.90;;;;;;;20.79;74.64;95814.25;5107389;28;20020;-63
2022/06/04 06:52:25;;;;;;;11.23;3.45;;;;;;;20.30;76.37;95825.03;5095129;28;20032;-62
2022/06/04 06:54:50;;;;;;;8.32;3.22;;;;;;;19.85;77.55;95836.06;5095227;27;20066;-62
2022/06/04 06:57:17;;;;;;;11.75;3.20;;;;;;;19.62;79.66;95844.38;5113811;27;20413;-62
2022/06/04 06:59:45;;;;;;;8.13;3.05;;;;;;;19.33;81.51;95844.38;5115958;27;20040;-63
2022/06/04 07:02:11;;;;;;;6.28;3.03;;;;;;;19.08;82.90;95843.94;5095128;27;20498;-64
2022/06/04 07:04:36;;;;;;;9.60;3.42;;;;;;;19.05;83.09;95844.34;5100107;27;20028;-63
2022/06/04 07:07:03;;;;;;;8.93;3.47;;;;;;;19.08;82.82;95841.28;5093101;28;20497;-63
2022/06/04 07:09:35;;;;;;;11.52;3.40;;;;;;;19.15;83.17;95842.19;5104298;27;21001;-62
2022/06/04 07:12:02;;;;;;;6.43;3.78;;;;;;;19.22;84.59;95841.41;5100774;27;20024;-61
2022/06/04 07:14:28;;;;;;;11.63;3.47;;;;;;;19.22;85.23;95849.41;5100576;27;20510;-61
2022/06/04 07:16:56;;;;;;;11.60;3.22;;;;;;;19.22;85.35;95849.41;5106491;27;20146;-62
2022/06/04 07:19:25;;;;;;;9.93;4.03;;;;;;;19.23;83.70;95846.56;5104298;27;20071;-62
2022/06/04 07:21:53;;;;;;;10.55;3.67;;;;;;;19.25;83.08;95849.03;5103510;27;20084;-62
2022/06/04 07:24:18;;;;;;;11.02;4.50;;;;;;;19.28;84.69;95853.97;5095713;27;20032;-61
2022/06/04 07:26:44;;;;;;;13.45;4.78;;;;;;;19.35;83.67;95851.38;5105559;27;20035;-62
2022/06/04 07:29:11;;;;;;;13.38;5.03;;;;;;;19.33;82.74;95848.88;5095587;27;20032;-61
2022/06/04 07:31:37;;;;;;;9.23;3.97;;;;;;;19.33;83.20;95851.53;5105234;27;20051;-61
2022/06/04 07:34:04;;;;;;;7.80;3.30;;;;;;;19.36;83.13;95848.50;5099582;27;20517;-61
2022/06/04 07:36:37;;;;;;;5.68;3.13;;;;;;;19.51;82.97;95848.41;5099828;27;20055;-61
2022/06/04 07:39:05;;;;;;;12.48;3.95;;;;;;;19.68;82.45;95851.59;5096817;27;20016;-62
2022/06/04 07:41:33;;;;;;;10.75;3.80;;;;;;;19.80;82.01;95851.06;5100692;27;20130;-62
2022/06/04 07:43:59;;;;;;;10.68;3.70;;;;;;;19.87;80.78;95841.25;5100978;27;20032;-61
2022/06/04 07:46:27;;;;;;;8.73;3.08;;;;;;;19.90;80.38;95849.69;5095146;27;20028;-61
2022/06/04 07:48:57;;;;;;;12.50;3.67;;;;;;;19.99;80.30;95845.00;5102910;27;20047;-61
2022/06/04 07:51:23;;;;;;;13.75;3.10;;;;;;;20.08;79.24;95839.53;5103396;27;20035;-61
2022/06/04 07:53:49;;;;;;;8.18;3.30;;;;;;;20.05;79.73;95840.75;5105742;27;20089;-61
2022/06/04 07:56:17;;;;;;;10.70;4.30;;;;;;;20.01;79.50;95844.84;5099494;28;20043;-61
2022/06/04 07:58:43;;;;;;;15.65;7.55;;;;;;;20.03;79.91;95843.63;5106246;27;20031;-61
2022/06/04 08:01:14;;;;;;;15.40;10.98;;;;;;;20.03;79.98;95837.44;5083320;28;20077;-60
2022/06/04 08:03:41;;;;;;;19.42;12.25;;;;;;;20.32;79.44;95838.19;5103033;27;20028;-61
2022/06/04 08:06:07;;;;;;;19.35;9.90;;;;;;;20.75;76.86;95835.22;5110144;27;20099;-61
2022/06/04 08:08:34;;;;;;;17.33;8.35;;;;;;;21.57;74.38;95836.94;5089915;28;20099;-61
2022/06/04 08:11:00;;;;;;;7.78;4.95;;;;;;;22.62;70.55;95842.44;5089528;28;20425;-61
2022/06/04 08:13:28;;;;;;;12.00;3.83;;;;;;;23.38;67.53;95845.28;5089410;28;20104;-60
2022/06/04 08:15:58;;;;;;;12.52;3.55;;;;;;;23.83;65.92;95833.47;5097806;28;20026;-62
2022/06/04 08:18:25;;;;;;;11.68;3.97;;;;;;;24.23;64.75;95834.94;5107151;28;20028;-62
2022/06/04 08:20:53;;;;;;;6.72;3.00;;;;;;;24.80;61.45;95823.06;5110061;28;20386;-62
2022/06/04 08:23:19;;;;;;;9.23;3.38;;;;;;;25.03;60.26;95826.84;5110291;28;20031;-62
2022/06/04 08:25:50;;;;;;;8.52;3.22;;;;;;;25.42;59.08;95823.75;5110151;28;20027;-62
2022/06/04 08:28:16;;;;;;;11.98;3.55;;;;;;;25.92;57.96;95819.78;5110090;28;20176;-61
2022/06/04 08:30:43;;;;;;;10.27;3.28;;;;;;;26.21;54.21;95825.31;5110035;28;20024;-61
2022/06/04 08:33:09;;;;;;;6.30;3.38;;;;;;;26.29;53.63;95821.38;5109924;28;20062;-61
2022/06/04 08:35:35;;;;;;;8.18;3.15;;;;;;;26.42;53.07;95823.81;5109542;28;20032;-61
2022/06/04 08:38:01;;;;;;;4.90;2.92;;;;;;;26.49;52.53;95812.06;5110114;28;20036;-61
2022/06/04 08:40:39;;;;;;;10.02;3.03;;;;;;;26.84;51.08;95805.69;5110185;28;20110;-61
2022/06/04 08:43:13;;;;;;;8.38;2.97;;;;;;;26.73;49.83;95807.41;5110117;28;20502;-62
2022/06/04 08:45:39;;;;;;;8.43;2.97;;;;;;;26.69;49.36;95814.34;5099222;28;20032;-61
2022/06/04 08:48:18;;;;;;;7.40;3.17;;;;;;;26.84;49.44;95803.00;5102348;28;20136;-62
2022/06/04 08:50:44;;;;;;;5.40;2.55;;;;;;;27.38;49.90;95799.03;5101419;28;20024;-62
2022/06/04 08:53:20;;;;;;;25.33;7.68;;;;;;;27.64;46.32;95788.66;5095124;28;20140;-62
2022/06/04 08:58:59;;;;;;;6.70;2.70;;;;;;;28.43;45.03;95794.84;5093512;28;20089;-62
2022/06/04 09:01:41;;;;;;;8.20;2.50;;;;;;;28.45;42.05;95800.81;5106612;28;20020;-62
2022/06/04 09:04:36;;;;;;;9.40;2.90;;;;;;;28.55;42.10;95791.97;5108662;28;20067;-62
2022/06/04 09:07:14;;;;;;;14.02;2.83;;;;;;;28.45;44.64;95787.28;5103401;28;20035;-62
2022/06/04 09:10:10;;;;;;;16.05;3.00;;;;;;;28.27;45.50;95789.22;5102130;28;20067;-62
2022/06/04 09:13:05;;;;;;;10.68;2.50;;;;;;;28.71;42.12;95788.34;5099403;28;20024;-62
2022/06/04 09:15:42;;;;;;;7.40;3.53;;;;;;;28.86;43.17;95784.19;5097243;28;20024;-62
2022/06/04 09:18:32;;;;;;;7.25;2.80;;;;;;;28.82;41.94;95783.88;5106759;28;20050;-62
2022/06/04 09:21:01;;;;;;;5.93;2.83;;;;;;;29.39;41.87;95778.94;5106317;28;20522;-61
2022/06/04 09:23:43;;;;;;;8.82;2.63;;;;;;;29.58;41.30;95773.13;5092912;28;20047;-61
2022/06/04 09:26:14;;;;;;;5.78;2.60;;;;;;;29.35;40.62;95777.00;5093154;28;20035;-62
2022/06/04 09:28:43;;;;;;;8.85;3.00;;;;;;;29.00;43.06;95777.28;5092585;28;20086;-61
2022/06/04 09:31:11;;;;;;;7.63;2.30;;;;;;;29.48;41.64;95782.00;5093096;28;20565;-62
2022/06/04 09:33:53;;;;;;;8.93;2.88;;;;;;;29.95;40.68;95777.66;5092678;28;20059;-61
2022/06/04 09:36:25;;;;;;;10.20;2.60;;;;;;;30.32;39.78;95778.66;5093050;28;20103;-61
2022/06/04 09:38:59;;;;;;;8.25;2.85;;;;;;;30.43;39.40;95787.66;5098413;28;20077;-63
2022/06/04 09:41:27;;;;;;;14.55;3.67;;;;;;;30.22;41.28;95782.16;5093340;28;20027;-62
2022/06/04 09:44:18;;;;;;;12.25;2.90;;;;;;;30.80;39.83;95783.97;5091709;28;20097;-61
2022/06/04 09:46:46;;;;;;;10.85;2.72;;;;;;;30.84;40.22;95771.50;5095900;27;20101;-61
2022/06/04 09:49:42;;;;;;;10.60;3.33;;;;;;;30.20;40.63;95767.22;5103322;27;20505;-61
2022/06/04 09:52:38;;;;;;;6.55;3.20;;;;;;;30.12;42.08;95774.78;5105622;27;20077;-61
2022/06/04 09:55:15;;;;;;;9.77;2.95;;;;;;;30.51;40.03;95776.28;5098405;27;20047;-61
2022/06/04 09:57:41;;;;;;;12.32;3.58;;;;;;;30.42;39.82;95775.97;5104042;27;20524;-61
2022/06/04 10:00:20;;;;;;;6.40;2.75;;;;;;;30.34;42.19;95778.38;5105583;27;20031;-62
2022/06/04 10:02:56;;;;;;;12.05;3.33;;;;;;;30.58;41.44;95774.09;5106403;27;20055;-62
2022/06/04 10:05:24;;;;;;;8.10;2.78;;;;;;;30.23;43.63;95772.94;5105084;27;20024;-62
2022/06/04 10:07:50;;;;;;;8.32;3.97;;;;;;;30.45;40.66;95772.72;5107445;27;20024;-62
2022/06/04 10:10:33;;;;;;;6.40;2.65;;;;;;;30.28;38.94;95770.22;5106702;27;20020;-62
2022/06/04 10:15:49;;;;;;;7.15;2.80;;;;;;;30.37;39.84;95772.41;5106215;27;20877;-62
2022/06/04 10:18:32;;;;;;;7.15;2.50;;;;;;;30.82;37.45;95776.34;5105580;27;20043;-62
2022/06/04 10:21:18;;;;;;;6.38;2.40;;;;;;;30.56;38.63;95770.84;5107113;27;20020;-62
2022/06/04 10:23:50;;;;;;;8.55;2.97;;;;;;;30.34;39.19;95765.63;5103224;27;20021;-62
2022/06/04 10:26:37;;;;;;;6.55;3.00;;;;;;;30.62;38.99;95769.00;5106509;27;20018;-68
2022/06/04 10:29:33;;;;;;;9.10;3.10;;;;;;;30.14;39.11;95769.06;5111811;27;20083;-69
2022/06/04 10:32:12;;;;;;;8.65;3.15;;;;;;;30.44;40.54;95767.56;5109489;27;20579;-69
2022/06/04 10:34:52;;;;;;;9.20;2.88;;;;;;;30.87;37.63;95761.97;5099468;27;20086;-66
2022/06/04 10:37:24;;;;;;;6.47;2.38;;;;;;;31.26;37.67;95764.19;5108460;27;20031;-66
2022/06/04 10:40:20;;;;;;;8.32;2.83;;;;;;;31.18;37.30;95759.28;5107600;27;20084;-66
2022/06/04 10:43:04;;;;;;;8.38;2.80;;;;;;;30.96;39.11;95751.38;5096080;27;20055;-65
2022/06/04 10:45:32;;;;;;;7.45;2.85;;;;;;;30.00;40.31;95757.88;5108597;27;20407;-66
2022/06/04 10:48:17;;;;;;;9.32;2.72;;;;;;;30.64;39.13;95745.09;5103663;27;20012;-68
2022/06/04 10:54:08;;;;;;;7.20;2.58;;;;;;;30.44;40.65;95746.66;5103873;27;20070;-65
2022/06/04 10:56:45;;;;;;;8.80;2.70;;;;;;;31.20;39.66;95745.41;5095946;27;20082;-67
2022/06/04 10:59:13;;;;;;;8.32;2.75;;;;;;;30.93;38.86;95738.31;5103701;27;20024;-67
2022/06/04 11:02:31;;;;;;;9.40;3.03;;;;;;;31.27;37.82;95737.78;5101613;27;20055;-65
2022/06/04 11:05:06;;;;;;;7.63;2.80;;;;;;;31.40;39.53;95733.72;5054746;28;20032;-65
2022/06/04 11:07:57;;;;;;;14.48;3.33;;;;;;;31.52;39.69;95726.06;5097581;27;20028;-64
2022/06/04 11:10:33;;;;;;;12.80;2.95;;;;;;;31.97;37.84;95731.69;5107134;27;20026;-64
2022/06/04 11:13:13;;;;;;;12.98;9.15;;;;;;;32.08;36.82;95734.34;5104263;27;20020;-65
2022/06/04 11:15:43;;;;;;;24.85;20.05;;;;;;;32.23;37.18;95723.38;5100965;28;20016;-65
2022/06/04 11:18:13;;;;;;;16.33;9.10;;;;;;;32.87;35.27;95709.09;5107622;27;20499;-66
2022/06/04 11:20:54;;;;;;;15.00;4.40;;;;;;;32.82;36.93;95715.41;5106969;27;20020;-65
2022/06/04 11:23:39;;;;;;;14.18;3.78;;;;;;;32.60;37.07;95704.94;5111255;27;20069;-65
2022/06/04 11:26:16;;;;;;;6.93;2.90;;;;;;;32.77;35.03;95693.63;5108264;27;20039;-65
2022/06/04 11:28:41;;;;;;;8.45;3.08;;;;;;;32.84;35.65;95699.59;5104658;27;20035;-65
2022/06/04 11:31:17;;;;;;;7.95;2.80;;;;;;;33.17;33.78;95696.34;5107544;27;20456;-65
2022/06/04 11:34:15;;;;;;;7.53;2.88;;;;;;;33.03;34.95;95693.44;5106680;27;20102;-65
2022/06/04 11:36:58;;;;;;;9.77;3.35;;;;;;;32.31;36.33;95686.59;5103383;27;20039;-64
2022/06/04 11:39:44;;;;;;;11.40;2.83;;;;;;;32.62;35.05;95693.78;5106264;27;20035;-61
2022/06/04 11:42:22;;;;;;;6.47;3.42;;;;;;;32.29;35.08;95680.63;5104195;27;20028;-62
2022/06/04 11:45:17;;;;;;;10.02;3.33;;;;;;;33.08;33.51;95687.97;5101989;27;20038;-62
2022/06/04 11:47:55;;;;;;;10.40;3.40;;;;;;;32.54;34.37;95685.09;5102408;27;20403;-61
2022/06/04 11:50:30;;;;;;;10.50;3.47;;;;;;;32.71;35.15;95681.97;5100180;27;20052;-61
2022/06/04 11:53:32;;;;;;;10.88;3.53;;;;;;;32.84;35.44;95685.97;5107206;27;20020;-63
2022/06/04 11:56:05;;;;;;;10.10;3.15;;;;;;;32.71;34.90;95681.16;5111408;27;20112;-69
2022/06/04 11:58:55;;;;;;;12.18;3.00;;;;;;;32.92;34.97;95679.09;5096863;28;20024;-69
2022/06/04 12:01:40;;;;;;;12.02;3.50;;;;;;;32.44;33.27;95679.72;5096926;28;20019;-71
2022/06/04 12:04:35;;;;;;;11.23;3.05;;;;;;;31.64;34.30;95678.72;5090206;28;20066;-70
2022/06/04 12:07:13;;;;;;;8.57;2.70;;;;;;;30.30;38.62;95675.75;5092095;28;20031;-71
2022/06/04 12:09:55;;;;;;;5.32;2.28;;;;;;;30.71;38.99;95677.72;5089825;28;20024;-69
2022/06/04 12:12:31;;;;;;;10.60;2.55;;;;;;;31.46;36.49;95670.06;5095738;28;20016;-67
2022/06/04 12:15:16;;;;;;;10.55;3.70;;;;;;;32.07;35.59;95659.22;5071761;28;20036;-68